KLIT

Bill and Hillary Clinton National / Adams Field Airport

Little Rock, Arkansas, USA
METAR KLIT 192253Z 12011KT 10SM SCT035 SCT120 BKN250 30/25 A2983 RMK AO2 LTG DSNT E SLP099 CB DSNT E MOV NE T03000250
Observed Flight Rules
Aug-19 @ 22:53 UTC (16 minutes ago) Visual Flight Rules
Wind Visibility Clouds
120° at 11 knots 10 miles
  • Scattered at 3,500' AGL
  • Scattered at 12,000' AGL
  • Broken at 25,000' AGL
Temperatures Readings
Current 30°C / 86°F
Dewpoint 25°C / 77°F
Humidity 75%
Altimeter 29.83" Hg
Pressure 1009.9 hPa
Elevation 79
METAR KLIT 192253Z 12011KT 10SM SCT035 SCT120 BKN250 30/25 A2983 RMK AO2 LTG DSNT E SLP099 CB DSNT E MOV NE T03000250
Observed Flight Rules
Aug-19 @ 22:53 UTC
(16 minutes ago)
VFR
Wind Visibility
120° at 11 knots 10 miles
Clouds
  • Scattered at 3,500' AGL
  • Scattered at 12,000' AGL
  • Broken at 25,000' AGL
Temperature Dewpoint
30°C / 86°F 25°C / 77°F
Humidity Altimeter Pressure
75% 29.83" Hg 1009.9 hPa